Time;durP1;ratioP1;P1;durP2;ratioP2;P2;SDS_P1;SDS_P2;PMS_P1;PMS_P2;Temp;Humidity;BMP_temperature;BMP_pressure;BME280_temperature;BME280_humidity;BME280_pressure;Samples;Min_cycle;Max_cycle;Signal;HPM_P1;HPM_P2
2021/10/26 00:01:56;;;;;;;7.90;4.93;;;;;;;9.40;91.18;97161.50;5115903;28;20211;-75
2021/10/26 00:04:22;;;;;;;8.07;5.13;;;;;;;9.61;89.67;97165.59;5116171;28;20668;-74
2021/10/26 00:06:47;;;;;;;8.33;5.37;;;;;;;9.34;90.78;97164.94;5116097;28;20168;-75
2021/10/26 00:09:13;;;;;;;6.43;5.07;;;;;;;9.32;91.56;97159.13;5115687;28;20303;-75
2021/10/26 00:11:39;;;;;;;7.30;5.10;;;;;;;9.42;91.27;97161.25;5116227;28;20168;-75
2021/10/26 00:14:05;;;;;;;9.27;5.43;;;;;;;9.42;91.13;97158.66;5115475;28;20590;-75
2021/10/26 00:16:30;;;;;;;7.93;5.47;;;;;;;9.46;90.60;97158.06;5115248;28;20329;-74
2021/10/26 00:18:56;;;;;;;7.77;5.37;;;;;;;9.32;91.66;97153.88;5115636;28;20203;-75
2021/10/26 00:21:21;;;;;;;10.40;5.90;;;;;;;9.33;91.33;97158.09;5115255;28;20175;-76
2021/10/26 00:23:47;;;;;;;6.77;5.30;;;;;;;9.21;91.74;97154.53;5096948;28;20196;-75
2021/10/26 00:26:12;;;;;;;5.97;5.27;;;;;;;9.15;92.20;97150.94;5096964;28;20628;-75
2021/10/26 00:28:38;;;;;;;5.53;4.83;;;;;;;9.19;92.34;97157.34;5116148;28;20236;-75
2021/10/26 00:31:03;;;;;;;7.90;5.47;;;;;;;9.29;91.97;97158.75;5115650;28;20266;-75
2021/10/26 00:33:30;;;;;;;7.23;5.17;;;;;;;9.25;92.59;97155.72;5115351;28;20175;-75
2021/10/26 00:35:55;;;;;;;6.47;5.50;;;;;;;9.36;91.77;97162.91;5115583;28;20240;-76
2021/10/26 00:38:21;;;;;;;5.97;4.97;;;;;;;9.39;92.21;97165.13;5115258;28;20652;-75
2021/10/26 00:40:47;;;;;;;9.43;5.40;;;;;;;9.60;90.25;97166.59;5115475;28;20183;-76
2021/10/26 00:43:13;;;;;;;8.20;5.20;;;;;;;9.68;89.73;97158.50;5112659;28;20233;-76
2021/10/26 00:45:38;;;;;;;8.93;5.53;;;;;;;9.71;89.07;97171.16;5115169;28;20249;-75
2021/10/26 00:48:04;;;;;;;9.43;5.50;;;;;;;9.59;89.53;97172.84;5115290;28;20186;-75
2021/10/26 00:50:29;;;;;;;5.70;5.13;;;;;;;9.71;88.87;97179.03;5115405;28;20207;-75
2021/10/26 00:52:55;;;;;;;8.00;5.97;;;;;;;9.57;89.66;97172.28;5115034;28;20561;-76
2021/10/26 00:55:21;;;;;;;8.00;5.97;;;;;;;9.75;88.94;97174.97;5115440;28;20224;-75
2021/10/26 00:57:46;;;;;;;6.73;5.43;;;;;;;9.53;90.11;97168.44;5115499;28;20176;-75
2021/10/26 01:00:15;;;;;;;7.80;5.83;;;;;;;9.59;90.05;97162.38;5096691;28;20171;-76
2021/10/26 01:02:45;;;;;;;9.37;4.93;;;;;;;9.64;89.98;97162.53;5115116;28;20640;-76
2021/10/26 01:05:12;;;;;;;7.07;5.30;;;;;;;9.70;89.36;97168.75;5107030;28;20201;-76
2021/10/26 01:07:38;;;;;;;9.70;5.77;;;;;;;9.88;89.20;97163.59;5115227;28;20172;-75
2021/10/26 01:10:04;;;;;;;8.17;5.77;;;;;;;9.91;88.78;97164.00;5115221;28;20171;-75
2021/10/26 01:12:30;;;;;;;6.33;4.90;;;;;;;9.86;89.38;97168.28;5115025;28;20168;-75
2021/10/26 01:14:56;;;;;;;6.30;5.00;;;;;;;9.74;90.39;97164.72;5114421;28;20651;-75
2021/10/26 01:17:22;;;;;;;8.30;5.27;;;;;;;9.77;89.82;97161.66;5114711;28;20203;-75
2021/10/26 01:19:48;;;;;;;7.23;5.27;;;;;;;9.73;90.78;97163.13;5096200;28;20168;-75
2021/10/26 01:22:14;;;;;;;7.93;4.80;;;;;;;9.82;90.74;97161.84;5096989;28;20184;-75
2021/10/26 01:24:40;;;;;;;7.10;5.07;;;;;;;9.78;90.69;97169.31;5113935;28;20226;-76
2021/10/26 01:27:06;;;;;;;7.50;5.60;;;;;;;9.88;90.29;97164.41;5114604;28;20534;-76
2021/10/26 01:29:31;;;;;;;7.27;5.30;;;;;;;10.00;89.60;97172.38;5114227;28;20293;-75
2021/10/26 01:31:57;;;;;;;9.27;5.63;;;;;;;9.99;89.68;97176.00;5114163;28;20261;-75
2021/10/26 01:34:23;;;;;;;6.77;5.03;;;;;;;10.01;89.61;97176.59;5114047;28;20200;-75
2021/10/26 01:36:49;;;;;;;10.17;5.87;;;;;;;10.02;89.60;97172.97;5114027;28;20179;-75
2021/10/26 01:39:15;;;;;;;6.93;4.97;;;;;;;10.00;90.02;97180.22;5096349;28;20168;-75
2021/10/26 01:41:40;;;;;;;8.33;5.63;;;;;;;10.19;89.00;97184.56;5114514;28;20184;-75
2021/10/26 01:44:06;;;;;;;6.57;5.20;;;;;;;10.06;90.12;97184.63;5111474;28;20235;-76
2021/10/26 01:46:32;;;;;;;7.07;5.20;;;;;;;10.04;90.38;97181.41;5114346;28;20187;-76
2021/10/26 01:48:57;;;;;;;7.60;5.13;;;;;;;10.13;89.96;97187.19;5114021;28;20602;-76
2021/10/26 01:51:22;;;;;;;5.87;5.27;;;;;;;10.06;91.04;97184.63;5095788;28;20178;-76
2021/10/26 01:53:48;;;;;;;6.60;5.27;;;;;;;10.15;90.89;97180.72;5095580;28;20204;-76
2021/10/26 01:56:14;;;;;;;7.87;5.47;;;;;;;10.10;92.68;97187.59;5114586;28;20190;-75
2021/10/26 01:58:48;;;;;;;7.40;5.43;;;;;;;10.13;93.70;97185.38;5114202;28;20176;-76
2021/10/26 02:01:14;;;;;;;7.67;5.80;;;;;;;10.06;95.14;97192.47;5098094;28;20190;-76
2021/10/26 02:03:40;;;;;;;8.50;5.50;;;;;;;9.93;97.03;97189.94;5113972;28;20207;-76
2021/10/26 02:06:05;;;;;;;8.47;5.77;;;;;;;9.91;98.14;97190.19;5095906;28;20178;-76
2021/10/26 02:08:30;;;;;;;7.60;5.70;;;;;;;9.94;99.21;97188.94;5115020;28;20168;-76
2021/10/26 02:10:56;;;;;;;10.80;6.10;;;;;;;9.95;99.92;97191.34;5114306;28;20168;-76
2021/10/26 02:13:21;;;;;;;9.03;6.27;;;;;;;9.95;100.00;97191.34;5114173;28;20179;-76
2021/10/26 02:15:47;;;;;;;7.40;6.03;;;;;;;9.99;100.00;97197.75;5095731;28;20187;-76
2021/10/26 02:18:12;;;;;;;9.30;6.50;;;;;;;10.02;100.00;97191.31;5113995;28;20253;-76
2021/10/26 02:20:37;;;;;;;7.30;5.63;;;;;;;9.89;100.00;97201.88;5113504;28;20176;-77
2021/10/26 02:23:03;;;;;;;10.67;6.30;;;;;;;9.75;100.00;97197.75;5113835;28;20267;-77
2021/10/26 02:25:30;;;;;;;12.57;6.67;;;;;;;9.81;100.00;97202.09;5113520;28;20235;-77
2021/10/26 02:27:56;;;;;;;8.40;6.37;;;;;;;9.84;100.00;97207.75;5113961;28;20213;-78
2021/10/26 02:30:21;;;;;;;9.47;6.27;;;;;;;9.69;100.00;97209.06;5114139;28;20179;-76
2021/10/26 02:32:47;;;;;;;11.33;6.40;;;;;;;9.63;100.00;97207.28;5114107;28;20182;-78
2021/10/26 02:35:12;;;;;;;8.03;6.37;;;;;;;9.65;100.00;97208.66;5113977;28;20201;-77
2021/10/26 02:37:38;;;;;;;11.67;6.80;;;;;;;9.74;100.00;97211.84;5113223;28;20636;-77
2021/10/26 02:40:04;;;;;;;9.43;6.57;;;;;;;9.72;100.00;97214.66;5114107;28;20548;-77
2021/10/26 02:42:32;;;;;;;9.93;7.23;;;;;;;9.63;100.00;97215.13;5113932;28;20179;-77
2021/10/26 02:44:57;;;;;;;12.70;7.47;;;;;;;9.54;100.00;97204.06;5111568;28;20646;-77
2021/10/26 02:47:22;;;;;;;10.90;7.13;;;;;;;9.66;100.00;97202.41;5114182;28;20175;-77
2021/10/26 02:49:48;;;;;;;9.33;6.93;;;;;;;9.55;100.00;97200.44;5114140;28;20176;-77
2021/10/26 02:52:14;;;;;;;10.30;7.57;;;;;;;9.44;100.00;97199.31;5096348;28;20228;-77
2021/10/26 02:54:39;;;;;;;10.67;7.00;;;;;;;9.46;100.00;97196.50;5095710;28;20202;-77
2021/10/26 02:57:05;;;;;;;10.50;7.23;;;;;;;9.49;100.00;97217.00;5113795;28;20183;-77
2021/10/26 02:59:30;;;;;;;9.60;7.77;;;;;;;9.47;100.00;97217.19;5113908;28;20172;-77
2021/10/26 03:01:56;;;;;;;9.40;7.00;;;;;;;9.38;100.00;97210.59;5113589;28;20644;-77
2021/10/26 03:04:21;;;;;;;8.53;7.40;;;;;;;9.36;100.00;97219.69;5094818;28;20199;-77
2021/10/26 03:06:47;;;;;;;9.47;7.37;;;;;;;9.30;100.00;97216.09;5094981;28;20669;-76
2021/10/26 03:09:12;;;;;;;9.17;7.37;;;;;;;9.35;100.00;97223.31;5113773;28;20165;-76
2021/10/26 03:11:38;;;;;;;10.53;7.30;;;;;;;9.33;100.00;97215.66;5113526;28;20218;-77
2021/10/26 03:14:05;;;;;;;11.57;7.40;;;;;;;9.26;100.00;97216.69;5113833;28;20279;-77
2021/10/26 03:16:30;;;;;;;9.53;7.37;;;;;;;9.45;100.00;97207.97;5095947;28;20182;-77
2021/10/26 03:18:56;;;;;;;8.67;7.30;;;;;;;9.29;100.00;97213.66;5114882;28;20172;-77
2021/10/26 03:21:21;;;;;;;11.20;7.63;;;;;;;9.33;100.00;97215.66;5095918;28;20175;-77
2021/10/26 03:23:47;;;;;;;10.23;7.80;;;;;;;9.13;100.00;97220.16;5114303;28;20261;-77
2021/10/26 03:26:12;;;;;;;9.00;7.13;;;;;;;9.03;100.00;97220.56;5114149;28;20209;-77
2021/10/26 03:28:38;;;;;;;8.37;7.03;;;;;;;9.02;100.00;97218.19;5096513;28;20204;-77
2021/10/26 03:31:04;;;;;;;11.43;8.17;;;;;;;8.94;100.00;97223.63;5114592;28;20180;-76
2021/10/26 03:33:31;;;;;;;10.43;8.10;;;;;;;8.95;100.00;97226.03;5096148;28;20176;-76
2021/10/26 03:35:58;;;;;;;11.60;7.93;;;;;;;8.86;100.00;97227.25;5096203;28;20184;-76
2021/10/26 03:38:23;;;;;;;9.77;7.73;;;;;;;8.94;100.00;97229.66;5115499;28;20168;-76
2021/10/26 03:40:49;;;;;;;10.43;8.10;;;;;;;8.96;100.00;97229.47;5115192;28;20187;-76
2021/10/26 03:43:14;;;;;;;9.00;7.47;;;;;;;8.76;100.00;97229.50;5111861;28;20259;-77
2021/10/26 03:45:40;;;;;;;8.80;6.50;;;;;;;8.76;100.00;97219.84;5098493;28;20215;-77
2021/10/26 03:48:08;;;;;;;9.30;7.67;;;;;;;8.93;100.00;97222.03;5098647;28;20195;-77
2021/10/26 03:50:33;;;;;;;11.03;8.03;;;;;;;8.86;100.00;97211.56;5115704;28;20176;-77
2021/10/26 03:53:01;;;;;;;10.60;7.30;;;;;;;8.79;100.00;97215.22;5101764;28;20177;-76
2021/10/26 03:55:26;;;;;;;9.90;7.53;;;;;;;8.60;100.00;97227.31;5104415;28;20200;-77
2021/10/26 03:57:52;;;;;;;9.50;6.70;;;;;;;8.52;100.00;97227.53;5120876;28;20176;-78
2021/10/26 04:00:18;;;;;;;11.03;7.30;;;;;;;8.51;100.00;97225.91;5120466;28;20255;-77
2021/10/26 04:02:43;;;;;;;9.27;7.10;;;;;;;8.49;100.00;97222.69;5102997;28;20183;-77
2021/10/26 04:05:26;;;;;;;9.90;7.43;;;;;;;8.56;100.00;97232.16;5120166;28;20208;-77
2021/10/26 04:07:57;;;;;;;8.47;6.80;;;;;;;8.50;100.00;97234.75;5122391;28;20161;-77
2021/10/26 04:10:42;;;;;;;10.43;7.57;;;;;;;8.59;100.00;97236.94;5102002;28;20560;-76
2021/10/26 04:13:08;;;;;;;11.07;7.83;;;;;;;8.52;100.00;97232.75;5123120;28;20240;-76
2021/10/26 04:15:33;;;;;;;10.27;7.77;;;;;;;8.57;100.00;97233.75;5137256;28;20184;-76
2021/10/26 04:17:58;;;;;;;10.27;7.50;;;;;;;8.58;100.00;97231.94;5111253;28;20168;-76
2021/10/26 04:20:24;;;;;;;12.30;7.60;;;;;;;8.52;100.00;97237.97;5138212;28;20180;-75
2021/10/26 04:22:49;;;;;;;10.17;7.23;;;;;;;8.58;100.00;97239.78;5139371;28;20184;-75
2021/10/26 04:25:15;;;;;;;11.00;7.37;;;;;;;8.38;100.00;97244.19;5138107;28;20199;-76
2021/10/26 04:27:40;;;;;;;9.87;7.30;;;;;;;8.39;100.00;97244.00;5139570;28;20160;-76
2021/10/26 04:30:07;;;;;;;10.63;7.07;;;;;;;8.57;100.00;97246.81;5138838;28;20191;-76
2021/10/26 04:32:33;;;;;;;11.30;7.17;;;;;;;8.55;100.00;97246.22;5138078;28;20249;-76
2021/10/26 04:34:59;;;;;;;9.13;7.40;;;;;;;8.64;100.00;97244.19;5139615;28;20203;-76
2021/10/26 04:37:24;;;;;;;10.87;7.20;;;;;;;8.57;100.00;97246.81;5137044;28;20168;-75
2021/10/26 04:39:49;;;;;;;10.30;7.97;;;;;;;8.57;100.00;97252.03;5136994;28;20180;-76
2021/10/26 04:42:15;;;;;;;9.57;7.00;;;;;;;8.54;100.00;97251.63;5134233;28;20209;-75
2021/10/26 04:44:40;;;;;;;9.57;7.37;;;;;;;8.58;100.00;97251.03;5126020;28;20227;-75
2021/10/26 04:47:06;;;;;;;10.53;7.90;;;;;;;8.60;100.00;97256.06;5120543;28;20247;-75
2021/10/26 04:49:32;;;;;;;9.47;7.50;;;;;;;8.61;100.00;97255.06;5103227;28;20171;-75
2021/10/26 04:51:58;;;;;;;10.33;7.93;;;;;;;8.69;100.00;97262.69;5121545;28;20172;-75
2021/10/26 04:54:23;;;;;;;11.03;7.00;;;;;;;8.64;100.00;97252.03;5123035;28;20268;-75
2021/10/26 04:56:49;;;;;;;11.13;8.03;;;;;;;8.72;100.00;97252.63;5127861;28;20161;-75
2021/10/26 04:59:14;;;;;;;8.93;7.60;;;;;;;8.66;100.00;97253.44;5118429;28;20318;-76
2021/10/26 05:01:40;;;;;;;10.17;7.80;;;;;;;8.68;100.00;97258.47;5134068;28;20206;-73
2021/10/26 05:04:05;;;;;;;10.70;7.17;;;;;;;8.68;100.00;97255.84;5134705;28;20204;-72
2021/10/26 05:06:31;;;;;;;11.97;7.63;;;;;;;8.82;100.00;97261.84;5136517;28;20184;-72
2021/10/26 05:08:57;;;;;;;9.90;7.57;;;;;;;8.80;100.00;97259.47;5132941;28;20175;-73
2021/10/26 05:11:23;;;;;;;11.03;8.20;;;;;;;8.79;100.00;97262.28;5134887;28;20168;-72
2021/10/26 05:13:50;;;;;;;9.80;7.37;;;;;;;8.82;100.00;97269.69;5134372;28;20203;-73
2021/10/26 05:16:15;;;;;;;11.17;8.20;;;;;;;8.82;100.00;97274.91;5132540;28;20197;-77
2021/10/26 05:18:44;;;;;;;9.87;7.87;;;;;;;8.94;100.00;97273.31;5135367;28;20176;-75
2021/10/26 05:21:16;;;;;;;12.67;8.73;;;;;;;9.00;100.00;97268.06;5137740;28;20168;-75
2021/10/26 05:23:45;;;;;;;12.57;8.10;;;;;;;9.04;100.00;97271.88;5135980;28;20207;-75
2021/10/26 05:26:11;;;;;;;13.33;8.10;;;;;;;9.09;100.00;97266.81;5107761;28;20176;-75
2021/10/26 05:28:37;;;;;;;10.23;8.23;;;;;;;9.00;100.00;97275.09;5132356;28;20183;-75
2021/10/26 05:31:02;;;;;;;9.47;7.40;;;;;;;8.79;100.00;97272.72;5131491;28;20176;-75
2021/10/26 05:33:28;;;;;;;9.87;7.73;;;;;;;8.73;100.00;97269.91;5122663;28;20548;-75
2021/10/26 05:35:54;;;;;;;11.70;7.70;;;;;;;8.74;100.00;97273.34;5105280;28;20221;-76
2021/10/26 05:38:19;;;;;;;13.60;7.87;;;;;;;8.79;100.00;97272.72;5130116;28;20662;-75
2021/10/26 05:40:45;;;;;;;10.83;7.80;;;;;;;8.75;100.00;97277.53;5118770;28;20585;-74
2021/10/26 05:43:10;;;;;;;9.53;7.80;;;;;;;8.73;100.00;97275.16;5112592;28;20183;-75
2021/10/26 05:45:35;;;;;;;10.70;7.57;;;;;;;8.79;100.00;97268.31;5115246;28;20302;-74
2021/10/26 05:48:02;;;;;;;14.03;8.47;;;;;;;8.76;100.00;97276.53;5114919;28;20210;-74
2021/10/26 05:50:28;;;;;;;13.67;8.73;;;;;;;8.85;100.00;97269.31;5114593;28;20173;-73
2021/10/26 05:52:54;;;;;;;12.47;8.37;;;;;;;8.87;100.00;97280.34;5115793;28;20690;-75
2021/10/26 05:55:19;;;;;;;12.37;8.67;;;;;;;8.81;100.00;97276.72;5114681;28;20274;-74
2021/10/26 05:57:45;;;;;;;11.13;8.07;;;;;;;8.89;100.00;97279.16;5114620;28;20183;-74
2021/10/26 06:00:11;;;;;;;12.63;8.47;;;;;;;8.81;100.00;97283.75;5114114;28;20168;-75
2021/10/26 06:02:36;;;;;;;10.30;8.33;;;;;;;8.97;100.00;97280.75;5114638;28;20176;-74
2021/10/26 06:05:02;;;;;;;12.90;8.20;;;;;;;8.82;100.00;97285.38;5116601;28;20199;-73
2021/10/26 06:07:27;;;;;;;11.90;8.93;;;;;;;8.95;100.00;97285.38;5114335;28;20211;-73
2021/10/26 06:09:53;;;;;;;8.27;7.33;;;;;;;8.94;100.00;97287.19;5114254;28;20172;-72
2021/10/26 06:12:24;;;;;;;12.33;8.53;;;;;;;8.99;100.00;97282.13;5113777;28;20632;-73
2021/10/26 06:14:50;;;;;;;9.53;7.40;;;;;;;9.13;100.00;97282.94;5112853;28;20191;-74
2021/10/26 06:17:15;;;;;;;10.17;8.20;;;;;;;8.94;100.00;97289.78;5094940;28;20548;-75
2021/10/26 06:19:41;;;;;;;12.80;8.13;;;;;;;9.06;100.00;97292.59;5114233;28;20184;-75
2021/10/26 06:22:06;;;;;;;10.17;7.80;;;;;;;9.11;100.00;97298.81;5113868;28;20267;-75
2021/10/26 06:24:32;;;;;;;9.50;7.30;;;;;;;9.14;100.00;97303.63;5113936;28;20687;-75
2021/10/26 06:26:57;;;;;;;10.10;7.40;;;;;;;9.23;100.00;97292.97;5120683;28;20205;-75
2021/10/26 06:29:22;;;;;;;12.47;7.97;;;;;;;9.15;100.00;97302.63;5120886;28;20178;-72
2021/10/26 06:31:48;;;;;;;10.13;8.00;;;;;;;9.04;100.00;97305.84;5114050;28;20183;-73
2021/10/26 06:34:13;;;;;;;8.93;7.47;;;;;;;9.16;100.00;97313.88;5113292;28;20223;-72
2021/10/26 06:36:39;;;;;;;10.93;8.60;;;;;;;9.08;100.00;97327.19;5112449;28;20215;-69
2021/10/26 06:39:05;;;;;;;10.33;7.97;;;;;;;9.05;100.00;97327.59;5105929;28;20177;-69
2021/10/26 06:41:31;;;;;;;12.23;7.97;;;;;;;9.00;100.00;97336.03;5113135;28;20172;-70
2021/10/26 06:43:56;;;;;;;9.50;7.00;;;;;;;9.24;100.00;97339.03;5110117;28;20259;-65
2021/10/26 06:46:22;;;;;;;10.27;7.50;;;;;;;9.34;100.00;97342.03;5113339;28;20172;-65
2021/10/26 06:48:48;;;;;;;9.43;7.20;;;;;;;9.44;100.00;97351.06;5113165;28;20206;-64
2021/10/26 06:51:13;;;;;;;10.00;7.70;;;;;;;9.43;100.00;97352.06;5102176;28;20172;-65
2021/10/26 06:53:40;;;;;;;8.37;6.97;;;;;;;9.45;100.00;97351.84;5111451;28;20206;-65
2021/10/26 06:56:11;;;;;;;10.73;7.60;;;;;;;9.48;100.00;97352.25;5113146;28;20167;-65
2021/10/26 06:58:36;;;;;;;11.57;7.57;;;;;;;9.54;100.00;97356.66;5106693;28;20193;-65
2021/10/26 07:01:07;;;;;;;10.47;7.17;;;;;;;9.48;100.00;97365.31;5111963;28;20176;-64
2021/10/26 07:03:33;;;;;;;9.93;7.07;;;;;;;9.59;100.00;97362.06;5112703;28;20510;-65
2021/10/26 07:05:58;;;;;;;9.57;7.60;;;;;;;9.61;100.00;97359.25;5111259;28;20188;-65
2021/10/26 07:08:24;;;;;;;10.27;7.63;;;;;;;9.66;100.00;97372.53;5112082;28;20270;-64
2021/10/26 07:10:51;;;;;;;9.20;6.93;;;;;;;9.78;100.00;97367.47;5111407;28;20171;-65
2021/10/26 07:13:16;;;;;;;8.93;7.60;;;;;;;10.07;100.00;97368.75;5112316;28;20206;-65
2021/10/26 07:15:42;;;;;;;9.43;7.20;;;;;;;10.11;100.00;97375.97;5108838;28;20176;-65
2021/10/26 07:18:08;;;;;;;9.47;6.77;;;;;;;10.17;100.00;97384.84;5111615;28;20188;-65
2021/10/26 07:20:34;;;;;;;12.43;7.03;;;;;;;10.14;100.00;97380.78;5112948;28;20182;-64
2021/10/26 07:22:59;;;;;;;8.43;6.40;;;;;;;10.36;100.00;97379.53;5094612;28;20183;-64
2021/10/26 07:25:25;;;;;;;7.63;5.90;;;;;;;10.34;100.00;97385.97;5112250;28;20239;-64
2021/10/26 07:27:54;;;;;;;10.97;6.70;;;;;;;10.35;100.00;97379.72;5116208;28;20176;-65
2021/10/26 07:30:20;;;;;;;10.33;6.60;;;;;;;10.31;100.00;97381.13;5097946;28;20183;-65
2021/10/26 07:32:45;;;;;;;9.07;7.17;;;;;;;10.36;100.00;97387.38;5116422;28;20176;-65
2021/10/26 07:35:11;;;;;;;12.30;7.00;;;;;;;10.40;100.00;97387.75;5116700;28;20656;-64
2021/10/26 07:37:45;;;;;;;10.53;6.67;;;;;;;10.39;100.00;97389.56;5116725;28;20195;-64
2021/10/26 07:40:11;;;;;;;7.90;6.37;;;;;;;10.37;100.00;97386.34;5117226;28;20543;-64
2021/10/26 07:42:37;;;;;;;9.17;6.80;;;;;;;10.51;100.00;97392.34;5117144;28;20187;-64
2021/10/26 07:45:04;;;;;;;9.00;6.27;;;;;;;10.62;100.00;97394.28;5114903;28;20296;-65
2021/10/26 07:47:29;;;;;;;8.63;6.70;;;;;;;10.86;100.00;97402.41;5117126;28;20176;-64
2021/10/26 07:49:56;;;;;;;8.63;6.07;;;;;;;10.95;100.00;97407.16;5116620;28;20599;-65
2021/10/26 07:52:22;;;;;;;6.50;5.83;;;;;;;11.13;100.00;97403.78;5117393;28;20293;-64
2021/10/26 07:54:53;;;;;;;8.63;6.33;;;;;;;11.41;98.19;97411.22;5116417;28;20279;-64
2021/10/26 07:57:23;;;;;;;10.10;6.53;;;;;;;11.50;98.47;97412.53;5116246;28;20171;-64
2021/10/26 07:59:50;;;;;;;10.33;6.33;;;;;;;11.85;95.95;97408.38;5116237;28;20581;-64
2021/10/26 08:02:16;;;;;;;8.47;6.40;;;;;;;12.14;93.82;97412.09;5118040;28;20514;-64
2021/10/26 08:04:43;;;;;;;7.33;5.47;;;;;;;12.37;93.11;97400.88;5107065;28;20262;-64
2021/10/26 08:07:09;;;;;;;7.60;5.80;;;;;;;12.48;92.53;97408.03;5116359;28;20251;-64
2021/10/26 08:09:35;;;;;;;8.17;5.77;;;;;;;12.53;91.87;97412.59;5115758;28;20172;-65
2021/10/26 08:12:00;;;;;;;7.37;6.03;;;;;;;12.52;90.72;97411.00;5115965;28;20245;-64
2021/10/26 08:14:26;;;;;;;8.13;6.17;;;;;;;12.65;90.86;97421.34;5115458;28;20204;-64
2021/10/26 08:16:52;;;;;;;9.07;5.83;;;;;;;12.73;89.52;97411.28;5115765;28;20183;-64
2021/10/26 08:19:17;;;;;;;6.93;5.80;;;;;;;12.71;89.65;97423.06;5100574;28;20188;-64
2021/10/26 08:21:43;;;;;;;9.73;6.40;;;;;;;12.83;89.98;97416.00;5097110;28;20632;-64
2021/10/26 08:24:09;;;;;;;7.10;5.67;;;;;;;13.06;89.35;97417.88;5114379;28;20207;-64
2021/10/26 08:29:14;;;;;;;8.10;6.47;;;;;;;13.50;87.07;97413.94;5115430;28;20525;-65
2021/10/26 08:31:46;;;;;;;8.10;6.30;;;;;;;13.60;86.00;97411.53;5115198;28;20179;-64
2021/10/26 08:36:40;;;;;;;8.23;5.83;;;;;;;13.66;84.70;97415.88;5115435;28;20723;-64
2021/10/26 08:39:07;;;;;;;6.53;5.17;;;;;;;13.53;85.69;97403.78;5114570;28;20262;-65
2021/10/26 08:41:35;;;;;;;6.53;5.30;;;;;;;13.76;84.88;97405.59;5115108;28;20590;-64
2021/10/26 08:44:01;;;;;;;8.53;5.97;;;;;;;13.72;84.38;97405.22;5112021;28;20297;-64
2021/10/26 08:46:27;;;;;;;7.30;5.73;;;;;;;13.72;84.62;97401.78;5114871;28;20267;-65
2021/10/26 08:48:53;;;;;;;6.87;5.20;;;;;;;14.06;83.03;97400.13;5115216;28;20223;-65
2021/10/26 08:51:23;;;;;;;5.63;4.50;;;;;;;14.21;81.64;97404.91;5115244;28;20175;-64
2021/10/26 08:53:53;;;;;;;7.70;5.17;;;;;;;14.41;81.11;97402.69;5096463;28;20204;-65
2021/10/26 08:56:20;;;;;;;5.17;4.67;;;;;;;14.50;79.18;97403.91;5114422;28;20174;-64
2021/10/26 08:58:45;;;;;;;7.10;4.53;;;;;;;14.40;78.86;97412.44;5114346;28;20168;-64
2021/10/26 09:01:11;;;;;;;7.13;5.00;;;;;;;14.09;79.59;97404.94;5114448;28;20183;-64
2021/10/26 09:03:39;;;;;;;8.27;5.10;;;;;;;14.05;80.52;97399.31;5114601;28;20559;-65
2021/10/26 09:06:06;;;;;;;5.53;4.93;;;;;;;14.04;80.66;97404.84;5114887;28;20207;-65
2021/10/26 09:08:31;;;;;;;6.07;4.70;;;;;;;13.86;80.92;97394.44;5114505;28;20187;-65
2021/10/26 09:11:15;;;;;;;8.10;5.43;;;;;;;13.91;81.38;97397.19;5114468;28;20180;-65
2021/10/26 09:19:25;;;;;;;6.60;5.00;;;;;;;13.89;82.56;97396.59;5114840;28;20276;-62
2021/10/26 09:21:56;;;;;;;7.30;5.60;;;;;;;13.85;82.40;97406.81;5095700;28;20263;-62
2021/10/26 09:24:22;;;;;;;6.40;5.10;;;;;;;13.79;82.42;97402.47;5113368;28;20215;-62
2021/10/26 09:26:56;;;;;;;6.53;4.83;;;;;;;14.04;81.18;97397.72;5114352;28;20175;-62
2021/10/26 09:29:41;;;;;;;8.07;4.90;;;;;;;13.88;81.44;97406.34;5113951;28;20190;-62
2021/10/26 09:32:20;;;;;;;7.17;4.70;;;;;;;13.98;80.63;97397.88;5100313;28;20176;-61
2021/10/26 09:34:56;;;;;;;7.10;4.87;;;;;;;14.28;79.28;97393.19;5113770;28;20280;-63
2021/10/26 09:37:23;;;;;;;10.37;4.83;;;;;;;14.61;78.55;97392.50;5113807;28;20188;-64
2021/10/26 09:39:56;;;;;;;4.97;4.50;;;;;;;15.01;77.57;97400.31;5113875;28;20258;-63
2021/10/26 09:42:27;;;;;;;5.13;4.63;;;;;;;15.12;76.95;97391.53;5110501;28;20184;-62
2021/10/26 09:45:01;;;;;;;6.17;4.50;;;;;;;15.39;75.20;97403.03;5105615;28;20737;-64
2021/10/26 09:47:29;;;;;;;7.97;4.37;;;;;;;15.14;76.18;97399.22;5107987;28;20180;-62
2021/10/26 09:50:03;;;;;;;4.20;3.53;;;;;;;14.78;76.02;97406.53;5112967;28;20180;-63
2021/10/26 09:52:41;;;;;;;3.80;3.13;;;;;;;14.90;75.35;97409.91;5113684;28;20179;-64
2021/10/26 09:55:15;;;;;;;6.23;3.77;;;;;;;15.05;75.43;97413.81;5105949;28;20291;-62
2021/10/26 09:57:53;;;;;;;8.40;4.00;;;;;;;15.22;74.17;97419.91;5110778;28;20180;-60
2021/10/26 10:00:28;;;;;;;4.30;3.40;;;;;;;15.41;73.81;97416.00;5113550;28;20168;-62
2021/10/26 10:03:11;;;;;;;3.47;3.10;;;;;;;15.57;72.85;97414.41;5113489;28;20172;-63
2021/10/26 10:05:40;;;;;;;8.77;3.73;;;;;;;15.75;73.06;97424.72;5112925;28;20563;-62
2021/10/26 10:08:24;;;;;;;4.43;3.17;;;;;;;15.70;72.86;97420.16;5113097;28;20181;-61
2021/10/26 10:10:55;;;;;;;2.80;2.60;;;;;;;15.10;75.03;97420.00;5113230;28;20183;-60
2021/10/26 10:13:22;;;;;;;6.00;2.97;;;;;;;15.14;74.97;97417.69;5113045;28;20183;-62
2021/10/26 10:15:48;;;;;;;3.40;2.90;;;;;;;14.74;76.05;97418.59;5112915;28;20203;-63
2021/10/26 10:18:19;;;;;;;4.57;2.60;;;;;;;14.64;76.43;97414.97;5112981;28;20175;-62
2021/10/26 10:20:52;;;;;;;3.03;2.63;;;;;;;14.56;76.22;97411.69;5113458;28;20675;-62
2021/10/26 10:23:19;;;;;;;2.53;2.07;;;;;;;14.95;74.51;97414.47;5112443;28;20683;-66
2021/10/26 10:25:47;;;;;;;2.30;2.10;;;;;;;15.15;73.60;97406.91;5112911;28;20226;-66
2021/10/26 10:28:18;;;;;;;3.23;2.33;;;;;;;15.31;72.97;97415.84;5113005;28;20203;-67
2021/10/26 10:30:44;;;;;;;2.70;2.27;;;;;;;15.29;73.14;97410.00;5113474;28;20175;-67
2021/10/26 10:33:10;;;;;;;3.43;2.13;;;;;;;15.21;72.08;97410.41;5094854;28;20642;-66
2021/10/26 10:35:38;;;;;;;2.10;1.90;;;;;;;15.04;72.13;97406.97;5112969;28;20199;-66
2021/10/26 10:38:06;;;;;;;3.00;2.00;;;;;;;15.33;70.95;97408.47;5112292;28;20186;-66
2021/10/26 10:40:32;;;;;;;2.57;1.73;;;;;;;15.82;69.76;97408.69;5112827;28;20219;-66
2021/10/26 10:42:59;;;;;;;4.27;1.80;;;;;;;16.15;67.83;97414.69;5111927;28;20194;-67
2021/10/26 10:45:26;;;;;;;3.27;1.73;;;;;;;16.06;66.40;97415.34;5110808;28;20223;-65
2021/10/26 10:47:56;;;;;;;1.90;1.60;;;;;;;16.18;65.61;97410.72;5112016;28;20614;-65
2021/10/26 10:50:37;;;;;;;1.80;1.70;;;;;;;16.52;64.95;97404.25;5112509;28;20554;-65
2021/10/26 10:53:20;;;;;;;1.57;1.47;;;;;;;16.43;64.45;97403.09;5112971;28;20606;-65
2021/10/26 10:55:52;;;;;;;2.57;1.80;;;;;;;16.56;64.75;97407.19;5112555;28;20175;-65
2021/10/26 10:58:24;;;;;;;3.40;1.80;;;;;;;16.45;64.23;97400.97;5112810;28;20194;-66
2021/10/26 11:00:53;;;;;;;2.63;1.50;;;;;;;16.36;64.19;97397.19;5112553;28;20607;-66
2021/10/26 11:03:34;;;;;;;2.10;1.70;;;;;;;16.14;65.86;97401.69;5117004;28;20172;-66
2021/10/26 11:06:00;;;;;;;2.37;1.80;;;;;;;16.15;66.33;97392.72;5117050;28;20248;-66
2021/10/26 11:08:52;;;;;;;1.70;1.60;;;;;;;15.99;66.63;97402.31;5116504;28;20180;-66
2021/10/26 11:11:17;;;;;;;3.33;1.90;;;;;;;16.09;65.26;97397.16;5099789;28;20207;-66
2021/10/26 11:13:43;;;;;;;8.10;1.80;;;;;;;16.04;66.25;97404.22;5116424;28;20206;-66
2021/10/26 11:16:12;;;;;;;3.17;1.73;;;;;;;15.99;66.37;97402.31;5098432;28;20218;-65
2021/10/26 11:18:44;;;;;;;3.40;2.00;;;;;;;16.22;67.08;97399.41;5098287;28;20175;-64
2021/10/26 11:21:23;;;;;;;2.10;1.90;;;;;;;16.47;66.84;97400.75;5116058;28;20606;-65
2021/10/26 11:23:50;;;;;;;7.30;4.20;;;;;;;16.13;69.32;97397.44;5100558;28;20228;-66
2021/10/26 11:26:31;;;;;;;5.10;3.87;;;;;;;16.36;69.11;97399.84;5115653;28;20271;-66
2021/10/26 11:29:00;;;;;;;4.10;2.80;;;;;;;15.90;69.20;97398.47;5116094;28;20172;-66
2021/10/26 11:31:29;;;;;;;2.90;2.20;;;;;;;15.54;69.76;97396.41;5116546;28;20175;-67
2021/10/26 11:33:54;;;;;;;4.40;2.87;;;;;;;15.53;71.41;97403.53;5116347;28;20415;-67
2021/10/26 11:36:20;;;;;;;6.00;3.80;;;;;;;15.77;70.00;97398.84;5115380;28;20598;-66
2021/10/26 11:38:50;;;;;;;3.40;3.00;;;;;;;15.79;69.56;97402.03;5116395;28;20195;-66
2021/10/26 11:41:26;;;;;;;2.73;2.30;;;;;;;15.38;70.72;97393.50;5116408;28;20180;-66
2021/10/26 11:43:57;;;;;;;2.83;2.00;;;;;;;15.53;69.57;97398.25;5113556;28;20239;-65